Lifton, United Kingdom
Current Conditions -  °F | °C
As of 1:20 PM on Friday 24 Oct 2014 (Local Time) from EGHQ Reporting Station
Light Rain Light Rain  
Wind Chill: 55°   Ceiling: 300
Heat Index: 55°   Visibility: 1.8mi
Dew Point: 55°   Wind: 13mph
Humidity: 100%   Direction: 290°WNW
Pressure: 29.94"   Gusts: NA
Location:  50.64°N, 4.28°W
Report Text: EGHQ 241220Z 29011KT 3000 -RA BR BKN003 BKN008 13/13 Q1014
Loading
Personal Weather Stations






























Interactive Weather Map New forecast layout! Learn more

10-Day Weather Forecast

Advertisements
Track Severe Weather on mobile